createdAt,value
2023-03-13T00:00:28.163Z,17.80
2023-03-13T00:02:54.828Z,17.80
2023-03-13T00:05:21.639Z,17.80
2023-03-13T00:07:48.487Z,17.80
2023-03-13T00:10:15.234Z,17.80
2023-03-13T00:12:41.936Z,17.80
2023-03-13T00:15:08.883Z,17.80
2023-03-13T00:17:35.878Z,17.80
2023-03-13T00:20:02.705Z,17.80
2023-03-13T00:22:29.450Z,17.80
2023-03-13T00:25:02.402Z,17.80
2023-03-13T00:27:32.361Z,17.80
2023-03-13T00:29:59.006Z,17.80
2023-03-13T00:32:25.752Z,17.80
2023-03-13T00:34:52.423Z,17.80
2023-03-13T00:37:19.162Z,17.80
2023-03-13T00:39:45.918Z,17.80
2023-03-13T00:42:12.623Z,17.80
2023-03-13T00:44:42.352Z,17.80
2023-03-13T00:47:09.049Z,17.80
2023-03-13T00:49:35.737Z,17.80
2023-03-13T00:52:02.452Z,17.80
2023-03-13T00:54:29.187Z,17.80
2023-03-13T00:57:02.160Z,17.80
2023-03-13T00:59:35.077Z,17.80
2023-03-13T01:02:01.798Z,17.80
2023-03-13T01:04:28.492Z,17.80
2023-03-13T01:06:55.400Z,17.80
2023-03-13T01:09:22.106Z,17.80
2023-03-13T01:11:54.927Z,17.80
2023-03-13T01:14:21.606Z,17.80
2023-03-13T01:16:48.346Z,17.80
2023-03-13T01:19:15.390Z,17.80
2023-03-13T01:21:48.336Z,17.80
2023-03-13T01:24:15.060Z,17.80
2023-03-13T01:26:41.745Z,17.80
2023-03-13T01:29:08.460Z,17.80
2023-03-13T01:31:38.314Z,17.80
2023-03-13T01:34:11.222Z,17.80
2023-03-13T01:36:38.068Z,17.80
2023-03-13T01:39:05.314Z,17.80
2023-03-13T01:41:32.031Z,17.80
2023-03-13T01:43:58.739Z,17.80
2023-03-13T01:46:27.818Z,17.80
2023-03-13T01:48:54.762Z,17.80
2023-03-13T01:51:21.953Z,17.80
2023-03-13T01:53:54.036Z,17.80
2023-03-13T01:56:31.812Z,17.80
2023-03-13T01:59:05.120Z,17.80
2023-03-13T02:01:38.740Z,17.80
2023-03-13T02:04:05.950Z,17.80
2023-03-13T02:06:36.371Z,17.90
2023-03-13T02:09:05.179Z,17.80
2023-03-13T02:11:46.272Z,17.80
2023-03-13T02:14:12.978Z,17.80
2023-03-13T02:16:42.074Z,17.80
2023-03-13T02:19:17.650Z,17.80
2023-03-13T02:21:53.055Z,17.80
2023-03-13T02:24:32.016Z,17.80
2023-03-13T02:26:58.740Z,17.80
2023-03-13T02:29:25.519Z,17.80
2023-03-13T02:31:52.338Z,17.80
2023-03-13T02:34:19.740Z,17.80
2023-03-13T02:36:46.434Z,17.80
2023-03-13T02:39:13.145Z,17.80
2023-03-13T02:41:46.039Z,17.80
2023-03-13T02:44:12.736Z,17.80
2023-03-13T02:46:46.333Z,17.80
2023-03-13T02:49:20.401Z,17.80
2023-03-13T02:51:53.973Z,17.80
2023-03-13T02:54:22.280Z,17.80
2023-03-13T02:56:49.520Z,17.80
2023-03-13T02:59:16.345Z,17.80
2023-03-13T03:01:43.000Z,17.80
2023-03-13T03:04:15.796Z,17.80
2023-03-13T03:06:49.091Z,17.80
2023-03-13T03:09:15.772Z,17.80
2023-03-13T03:11:42.451Z,17.80
2023-03-13T03:14:12.353Z,17.80
2023-03-13T03:16:44.992Z,17.80
2023-03-13T03:19:17.982Z,17.80
2023-03-13T03:21:49.549Z,17.80
2023-03-13T03:24:16.347Z,17.80
2023-03-13T03:26:49.044Z,17.80
2023-03-13T03:29:22.820Z,17.80
2023-03-13T03:31:55.684Z,17.80
2023-03-13T03:34:22.414Z,17.80
2023-03-13T03:36:49.188Z,17.80
2023-03-13T03:39:21.981Z,17.80
2023-03-13T03:41:48.656Z,17.80
2023-03-13T03:44:15.327Z,17.80
2023-03-13T03:46:41.982Z,17.80
2023-03-13T03:49:08.789Z,17.80
2023-03-13T03:51:35.454Z,17.80
2023-03-13T03:54:08.315Z,17.80
2023-03-13T03:56:35.021Z,17.80
2023-03-13T03:59:04.928Z,17.80
2023-03-13T04:01:31.634Z,17.80
2023-03-13T04:03:58.358Z,17.80
2023-03-13T04:06:25.019Z,17.80
2023-03-13T04:08:51.660Z,17.80
2023-03-13T04:11:21.776Z,17.80
2023-03-13T04:13:48.534Z,17.80
2023-03-13T04:16:15.254Z,17.80
2023-03-13T04:18:41.981Z,17.80
2023-03-13T04:21:08.687Z,17.80
2023-03-13T04:23:35.405Z,17.80
2023-03-13T04:26:02.104Z,17.80
2023-03-13T04:28:28.816Z,17.80
2023-03-13T04:30:57.483Z,17.80
2023-03-13T04:33:27.349Z,17.80
2023-03-13T04:35:54.066Z,17.80
2023-03-13T04:38:20.808Z,17.80
2023-03-13T04:40:48.139Z,17.80
2023-03-13T04:43:14.798Z,17.80
2023-03-13T04:45:41.533Z,17.80
2023-03-13T04:48:11.298Z,17.80
2023-03-13T04:50:38.082Z,17.80
2023-03-13T04:53:04.815Z,17.80
2023-03-13T04:55:31.518Z,17.80
2023-03-13T04:57:58.211Z,17.80
2023-03-13T05:00:24.990Z,17.80
2023-03-13T05:02:51.902Z,17.80
2023-03-13T05:05:18.734Z,17.80
2023-03-13T05:07:45.480Z,17.80
2023-03-13T05:10:12.258Z,17.80
2023-03-13T05:12:39.031Z,17.80
2023-03-13T05:15:06.097Z,17.80
2023-03-13T05:17:32.818Z,17.80
2023-03-13T05:19:59.496Z,17.80
2023-03-13T05:22:26.216Z,17.80
2023-03-13T05:24:52.942Z,17.80
2023-03-13T05:27:19.629Z,17.80
2023-03-13T05:29:46.290Z,17.80
2023-03-13T05:32:12.962Z,17.80
2023-03-13T05:34:39.675Z,17.80
2023-03-13T05:37:09.507Z,17.80
2023-03-13T05:39:36.196Z,17.80
2023-03-13T05:42:02.882Z,17.80
2023-03-13T05:44:29.602Z,17.80
2023-03-13T05:46:56.252Z,17.80
2023-03-13T05:49:29.201Z,17.80
2023-03-13T05:51:59.316Z,17.80
2023-03-13T05:54:26.014Z,17.80
2023-03-13T05:56:52.687Z,17.80
2023-03-13T05:59:19.642Z,17.80
2023-03-13T06:01:46.340Z,17.80
2023-03-13T06:04:13.161Z,17.80
2023-03-13T06:06:46.330Z,17.80
2023-03-13T06:09:16.209Z,17.80
2023-03-13T06:11:42.966Z,17.80
2023-03-13T06:14:11.647Z,17.80
2023-03-13T06:16:38.327Z,17.80
2023-03-13T06:19:04.983Z,17.80
2023-03-13T06:21:31.663Z,17.80
2023-03-13T06:23:58.372Z,17.90
2023-03-13T06:26:25.821Z,17.80
2023-03-13T06:28:52.572Z,17.90
2023-03-13T06:31:22.451Z,17.80
2023-03-13T06:33:50.440Z,17.90
2023-03-13T06:36:21.070Z,17.80
2023-03-13T06:38:53.939Z,17.80
2023-03-13T06:41:24.517Z,17.80
2023-03-13T06:43:52.793Z,17.80
2023-03-13T06:46:20.779Z,17.80
2023-03-13T06:48:48.147Z,17.80
2023-03-13T06:51:21.394Z,17.80
2023-03-13T06:53:48.192Z,17.80
2023-03-13T06:56:14.917Z,17.90
2023-03-13T06:58:41.624Z,17.80
2023-03-13T07:01:11.925Z,17.80
2023-03-13T07:03:38.809Z,17.80
2023-03-13T07:06:08.640Z,17.80
2023-03-13T07:08:35.566Z,17.80
2023-03-13T07:11:03.271Z,17.80
2023-03-13T07:13:30.097Z,17.80
2023-03-13T07:16:00.018Z,17.80
2023-03-13T07:18:29.863Z,17.80
2023-03-13T07:20:57.313Z,17.80
2023-03-13T07:23:24.194Z,17.80
2023-03-13T07:25:57.835Z,17.80
2023-03-13T07:28:24.814Z,17.80
2023-03-13T07:30:51.598Z,17.80
2023-03-13T07:33:18.390Z,17.80
2023-03-13T07:35:51.650Z,17.80
2023-03-13T07:38:18.818Z,17.80
2023-03-13T07:40:52.161Z,17.80
2023-03-13T07:43:18.954Z,17.80
2023-03-13T07:45:59.047Z,17.80
2023-03-13T07:48:28.004Z,17.80
2023-03-13T07:51:01.079Z,17.80
2023-03-13T07:53:27.785Z,17.80
2023-03-13T07:55:57.743Z,17.80
2023-03-13T07:58:24.709Z,17.80
2023-03-13T08:00:51.606Z,17.80
2023-03-13T08:03:18.357Z,17.80
2023-03-13T08:06:11.560Z,17.80
2023-03-13T08:08:38.518Z,17.80
2023-03-13T08:11:12.217Z,17.80
2023-03-13T08:13:39.201Z,17.80
2023-03-13T08:16:16.003Z,17.80
2023-03-13T08:18:43.806Z,17.80
2023-03-13T08:21:14.337Z,17.80
2023-03-13T08:23:41.138Z,17.80
2023-03-13T08:26:11.822Z,17.80
2023-03-13T08:28:38.812Z,17.80
2023-03-13T08:31:08.793Z,17.80
2023-03-13T08:33:35.585Z,17.90
2023-03-13T08:36:10.720Z,17.90
2023-03-13T08:38:38.230Z,17.90
2023-03-13T08:41:05.096Z,17.90
2023-03-13T08:43:34.793Z,17.90
2023-03-13T08:46:01.543Z,17.90
2023-03-13T08:48:28.279Z,17.90
2023-03-13T08:51:04.212Z,17.90
2023-03-13T08:53:31.036Z,17.90
2023-03-13T08:56:04.693Z,17.90
2023-03-13T08:58:31.414Z,17.90
2023-03-13T09:01:04.906Z,17.90
2023-03-13T09:03:31.718Z,17.90
2023-03-13T09:05:58.856Z,17.90
2023-03-13T09:08:25.725Z,17.90
2023-03-13T09:10:56.629Z,17.90
2023-03-13T09:13:23.826Z,17.90
2023-03-13T09:15:56.571Z,17.90
2023-03-13T09:18:23.520Z,17.90
2023-03-13T09:20:50.276Z,17.90
2023-03-13T09:23:17.065Z,17.90
2023-03-13T09:25:50.167Z,18.00
2023-03-13T09:28:16.977Z,17.90
2023-03-13T09:30:43.726Z,17.90
2023-03-13T09:33:23.335Z,17.90
2023-03-13T09:36:06.443Z,17.90
2023-03-13T09:38:39.522Z,17.90
2023-03-13T09:41:41.683Z,18.00
2023-03-13T09:44:23.783Z,17.90
2023-03-13T09:47:06.448Z,17.90
2023-03-13T09:49:38.562Z,18.00
2023-03-13T09:52:21.888Z,18.00
2023-03-13T09:55:00.857Z,18.00
2023-03-13T09:57:35.848Z,17.90
2023-03-13T10:00:13.186Z,18.00
2023-03-13T10:02:44.529Z,17.90
2023-03-13T10:05:22.887Z,17.90
2023-03-13T10:07:55.066Z,17.90
2023-03-13T10:10:32.983Z,17.90
2023-03-13T10:13:07.379Z,17.90
2023-03-13T10:15:43.009Z,18.00
2023-03-13T10:18:29.693Z,18.00
2023-03-13T10:21:13.170Z,18.00
2023-03-13T10:23:45.016Z,18.00
2023-03-13T10:26:15.916Z,17.90
2023-03-13T10:28:43.126Z,17.90
2023-03-13T10:31:39.406Z,17.90
2023-03-13T10:34:15.404Z,17.90
2023-03-13T10:36:48.575Z,17.90
2023-03-13T10:39:22.478Z,17.90
2023-03-13T10:42:00.157Z,18.00
2023-03-13T10:44:43.580Z,18.00
2023-03-13T10:47:18.171Z,18.00
2023-03-13T10:49:58.533Z,18.00
2023-03-13T10:52:33.234Z,18.00
2023-03-13T10:55:16.244Z,18.00
2023-03-13T10:57:44.894Z,18.00
2023-03-13T11:00:30.651Z,18.00
2023-03-13T11:03:04.289Z,18.00
2023-03-13T11:05:41.027Z,18.00
2023-03-13T11:08:27.141Z,18.00
2023-03-13T11:10:58.454Z,18.00
2023-03-13T11:13:50.995Z,18.00
2023-03-13T11:16:30.201Z,18.00
2023-03-13T11:19:15.299Z,18.00
2023-03-13T11:21:56.806Z,18.00
2023-03-13T11:27:40.541Z,18.00
2023-03-13T11:30:10.239Z,18.00
2023-03-13T11:32:58.378Z,18.00
2023-03-13T11:35:41.032Z,18.00
2023-03-13T11:38:19.369Z,18.00
2023-03-13T11:41:08.068Z,18.00
2023-03-13T11:43:42.419Z,18.00
2023-03-13T11:46:15.978Z,18.00
2023-03-13T11:48:58.455Z,18.00
2023-03-13T11:51:49.620Z,18.00
2023-03-13T11:54:23.009Z,18.00
2023-03-13T11:57:15.709Z,18.00
2023-03-13T11:59:49.204Z,18.00
2023-03-13T12:02:24.987Z,18.00
2023-03-13T12:05:23.890Z,18.00
2023-03-13T12:07:58.769Z,18.00
2023-03-13T12:10:49.381Z,18.00
2023-03-13T12:13:18.107Z,18.00
2023-03-13T12:15:49.862Z,18.00
2023-03-13T12:18:41.155Z,18.00
2023-03-13T12:24:12.920Z,18.00
2023-03-13T12:27:18.698Z,18.00
2023-03-13T12:30:17.551Z,18.00
2023-03-13T12:33:04.714Z,18.00
2023-03-13T12:35:35.246Z,18.00
2023-03-13T12:38:04.908Z,18.00
2023-03-13T12:40:40.595Z,18.00
2023-03-13T12:43:11.002Z,18.00
2023-03-13T12:46:04.564Z,18.00
2023-03-13T12:48:41.966Z,18.00
2023-03-13T12:51:27.070Z,18.00
2023-03-13T12:54:12.331Z,18.00
2023-03-13T12:56:57.987Z,18.00
2023-03-13T12:59:26.845Z,18.00
2023-03-13T13:01:54.366Z,18.00
2023-03-13T13:04:25.040Z,18.00
2023-03-13T13:06:56.856Z,18.10
2023-03-13T13:09:37.683Z,18.10
2023-03-13T13:12:23.255Z,18.10
2023-03-13T13:14:50.104Z,18.10
2023-03-13T13:17:26.066Z,18.10
2023-03-13T13:19:58.982Z,18.10
2023-03-13T13:22:38.126Z,18.10
2023-03-13T13:25:04.938Z,18.10
2023-03-13T13:27:31.749Z,18.10
2023-03-13T13:29:59.252Z,18.10
2023-03-13T13:32:30.319Z,18.10
2023-03-13T13:35:09.317Z,18.10
2023-03-13T13:37:36.160Z,18.10
2023-03-13T13:40:29.258Z,18.10
2023-03-13T13:42:59.895Z,18.10
2023-03-13T13:45:26.666Z,18.00
2023-03-13T13:48:13.830Z,18.10
2023-03-13T13:50:40.520Z,18.00
2023-03-13T13:53:29.826Z,18.10
2023-03-13T13:55:58.734Z,18.10
2023-03-13T13:58:27.642Z,18.10
2023-03-13T14:01:00.883Z,18.10
2023-03-13T14:03:28.322Z,18.10
2023-03-13T14:06:12.311Z,18.10
2023-03-13T14:08:42.067Z,18.10
2023-03-13T14:11:15.083Z,18.10
2023-03-13T14:13:41.876Z,18.20
2023-03-13T14:16:35.159Z,18.10
2023-03-13T14:19:04.985Z,18.10
2023-03-13T14:21:38.634Z,18.10
2023-03-13T14:24:12.804Z,18.10
2023-03-13T14:26:39.659Z,18.10
2023-03-13T14:29:08.182Z,18.20
2023-03-13T14:31:36.143Z,18.10
2023-03-13T14:34:09.973Z,18.10
2023-03-13T14:36:47.488Z,18.10
2023-03-13T14:39:32.588Z,18.10
2023-03-13T14:42:06.749Z,18.10
2023-03-13T14:44:36.459Z,18.10
2023-03-13T14:47:07.643Z,18.20
2023-03-13T14:49:37.381Z,18.20
2023-03-13T14:52:04.185Z,18.10
2023-03-13T14:54:32.682Z,18.20
2023-03-13T14:57:24.047Z,18.20
2023-03-13T14:59:54.872Z,18.10
2023-03-13T15:02:30.199Z,18.20
2023-03-13T15:05:01.303Z,18.20
2023-03-13T15:07:44.051Z,18.20
2023-03-13T15:10:21.329Z,18.20
2023-03-13T15:12:57.667Z,18.20
2023-03-13T15:15:30.672Z,18.20
2023-03-13T15:17:57.554Z,18.20
2023-03-13T15:20:28.970Z,18.20
2023-03-13T15:23:01.892Z,18.20
2023-03-13T15:25:28.712Z,18.20
2023-03-13T15:27:55.645Z,18.20
2023-03-13T15:30:25.666Z,18.20
2023-03-13T15:32:52.670Z,18.20
2023-03-13T15:35:29.618Z,18.20
2023-03-13T15:37:57.359Z,18.20
2023-03-13T15:40:28.011Z,18.30
2023-03-13T15:43:00.883Z,18.20
2023-03-13T15:45:33.969Z,18.20
2023-03-13T15:48:00.853Z,18.20
2023-03-13T15:50:36.882Z,18.20
2023-03-13T15:53:17.030Z,18.20
2023-03-13T15:55:43.888Z,18.20
2023-03-13T15:58:12.759Z,18.20
2023-03-13T16:00:39.705Z,18.20
2023-03-13T16:03:06.486Z,18.20
2023-03-13T16:05:33.317Z,18.30
2023-03-13T16:08:00.031Z,18.20
2023-03-13T16:10:27.634Z,18.20
2023-03-13T16:12:54.590Z,18.20
2023-03-13T16:15:21.374Z,18.30
2023-03-13T16:17:48.070Z,18.20
2023-03-13T16:20:18.852Z,18.20
2023-03-13T16:22:46.816Z,18.20
2023-03-13T16:25:13.714Z,18.20
2023-03-13T16:27:41.987Z,18.30
2023-03-13T16:30:15.200Z,18.30
2023-03-13T16:32:41.969Z,18.30
2023-03-13T16:35:08.708Z,18.30
2023-03-13T16:37:35.392Z,18.30
2023-03-13T16:40:02.332Z,18.30
2023-03-13T16:42:29.065Z,18.30
2023-03-13T16:44:56.264Z,18.30
2023-03-13T16:47:25.258Z,18.30
2023-03-13T16:49:51.915Z,18.30
2023-03-13T16:52:18.736Z,18.30
2023-03-13T16:54:45.462Z,18.30
2023-03-13T16:57:14.484Z,18.20
2023-03-13T16:59:44.459Z,18.30
2023-03-13T17:02:15.112Z,18.30
2023-03-13T17:04:44.443Z,18.30
2023-03-13T17:07:29.869Z,18.30
2023-03-13T17:09:56.528Z,18.30
2023-03-13T17:12:32.602Z,18.30
2023-03-13T17:14:59.273Z,18.30
2023-03-13T17:17:25.953Z,18.30
2023-03-13T17:19:52.678Z,18.30
2023-03-13T17:22:21.520Z,18.30
2023-03-13T17:24:49.187Z,18.30
2023-03-13T17:27:16.375Z,18.30
2023-03-13T17:29:43.286Z,18.40
2023-03-13T17:32:13.410Z,18.30
2023-03-13T17:34:40.271Z,18.40
2023-03-13T17:37:14.388Z,18.40
2023-03-13T17:39:41.097Z,18.30
2023-03-13T17:42:08.097Z,18.40
2023-03-13T17:44:34.859Z,18.30
2023-03-13T17:47:01.558Z,18.40
2023-03-13T17:49:31.057Z,18.40
2023-03-13T17:51:57.752Z,18.40
2023-03-13T17:54:24.482Z,18.50
2023-03-13T17:56:52.269Z,18.50
2023-03-13T17:59:19.212Z,18.50
2023-03-13T18:01:46.002Z,18.60
2023-03-13T18:04:13.284Z,18.50
2023-03-13T18:06:42.406Z,18.50
2023-03-13T18:09:13.131Z,18.50
2023-03-13T18:11:45.883Z,18.50
2023-03-13T18:14:12.911Z,18.50
2023-03-13T18:16:42.892Z,18.50
2023-03-13T18:19:27.780Z,18.50
2023-03-13T18:21:54.929Z,18.50
2023-03-13T18:24:21.744Z,18.50
2023-03-13T18:26:51.608Z,18.50
2023-03-13T18:29:21.543Z,18.50
2023-03-13T18:31:48.305Z,18.50
2023-03-13T18:34:15.844Z,18.50
2023-03-13T18:36:45.521Z,18.50
2023-03-13T18:39:17.305Z,18.50
2023-03-13T18:41:47.499Z,18.50
2023-03-13T18:44:18.970Z,18.50
2023-03-13T18:46:45.657Z,18.50
2023-03-13T18:49:21.355Z,18.50
2023-03-13T18:51:48.536Z,18.50
2023-03-13T18:54:15.385Z,18.40
2023-03-13T18:56:43.815Z,18.50
2023-03-13T18:59:11.707Z,18.40
2023-03-13T19:01:38.513Z,18.40
2023-03-13T19:04:05.393Z,18.50
2023-03-13T19:06:32.839Z,18.50
2023-03-13T19:09:04.967Z,18.50
2023-03-13T19:11:33.883Z,18.50
2023-03-13T19:14:00.611Z,18.50
2023-03-13T19:16:28.332Z,18.50
2023-03-13T19:18:55.104Z,18.50
2023-03-13T19:21:25.722Z,18.50
2023-03-13T19:23:52.604Z,18.50
2023-03-13T19:26:22.817Z,18.50
2023-03-13T19:28:49.537Z,18.50
2023-03-13T19:31:17.701Z,18.50
2023-03-13T19:33:46.481Z,18.50
2023-03-13T19:36:19.871Z,18.50
2023-03-13T19:38:46.690Z,18.50
2023-03-13T19:41:13.668Z,18.50
2023-03-13T19:43:40.537Z,18.50
2023-03-13T19:46:16.438Z,18.50
2023-03-13T19:48:43.161Z,18.40
2023-03-13T19:51:09.865Z,18.40
2023-03-13T19:53:36.740Z,18.50
2023-03-13T19:56:05.890Z,18.50
2023-03-13T19:58:32.607Z,18.50
2023-03-13T20:01:11.335Z,18.50
2023-03-13T20:03:43.418Z,18.50
2023-03-13T20:06:20.147Z,18.50
2023-03-13T20:08:47.004Z,18.50
2023-03-13T20:11:14.055Z,18.40
2023-03-13T20:13:40.829Z,18.50
2023-03-13T20:16:07.702Z,18.20
2023-03-13T20:18:34.474Z,18.50
2023-03-13T20:21:01.211Z,18.50
2023-03-13T20:23:27.938Z,18.50
2023-03-13T20:25:54.741Z,18.50
2023-03-13T20:28:21.507Z,18.50
2023-03-13T20:30:48.846Z,18.50
2023-03-13T20:33:15.876Z,18.50
2023-03-13T20:35:49.003Z,18.50
2023-03-13T20:38:16.832Z,18.50
2023-03-13T20:40:43.737Z,18.50
2023-03-13T20:43:10.405Z,18.50
2023-03-13T20:45:37.136Z,18.50
2023-03-13T20:48:03.900Z,18.50
2023-03-13T20:50:30.787Z,18.50
2023-03-13T20:52:57.502Z,18.50
2023-03-13T20:55:24.305Z,18.50
2023-03-13T20:57:51.046Z,18.50
2023-03-13T21:00:18.060Z,18.50
2023-03-13T21:02:46.710Z,18.50
2023-03-13T21:05:13.557Z,18.50
2023-03-13T21:07:40.245Z,18.50
2023-03-13T21:10:07.299Z,18.50
2023-03-13T21:12:35.428Z,18.50
2023-03-13T21:15:06.181Z,18.50
2023-03-13T21:17:33.098Z,18.50
2023-03-13T21:20:07.691Z,18.50
2023-03-13T21:22:34.396Z,18.50
2023-03-13T21:25:02.480Z,18.50
2023-03-13T21:27:29.192Z,18.50
2023-03-13T21:29:55.885Z,18.50
2023-03-13T21:32:23.222Z,18.40
2023-03-13T21:34:50.041Z,18.50
2023-03-13T21:37:17.788Z,18.50
2023-03-13T21:39:44.923Z,18.50
2023-03-13T21:42:12.987Z,18.50
2023-03-13T21:44:39.849Z,18.50
2023-03-13T21:47:06.717Z,18.50
2023-03-13T21:49:33.469Z,18.50
2023-03-13T21:52:00.207Z,18.50
2023-03-13T21:54:26.880Z,18.50
2023-03-13T21:56:53.757Z,18.50
2023-03-13T21:59:21.855Z,18.50
2023-03-13T22:01:51.608Z,18.50
2023-03-13T22:04:21.404Z,18.50
2023-03-13T22:06:48.137Z,18.50
2023-03-13T22:09:15.236Z,18.50
2023-03-13T22:11:45.161Z,18.50
2023-03-13T22:14:11.953Z,18.50
2023-03-13T22:16:44.819Z,18.50
2023-03-13T22:19:12.946Z,18.50
2023-03-13T22:21:39.582Z,18.50
2023-03-13T22:24:07.880Z,18.40
2023-03-13T22:26:35.078Z,18.40
2023-03-13T22:29:01.721Z,18.50
2023-03-13T22:31:28.306Z,18.50
2023-03-13T22:33:54.985Z,18.50
2023-03-13T22:36:21.596Z,18.40
2023-03-13T22:38:48.401Z,18.50
2023-03-13T22:41:15.372Z,18.40
2023-03-13T22:43:41.965Z,18.40
2023-03-13T22:46:09.416Z,18.40
2023-03-13T22:48:36.094Z,18.40
2023-03-13T22:51:03.008Z,18.40
2023-03-13T22:53:29.889Z,18.40
2023-03-13T22:55:56.585Z,18.40
2023-03-13T22:58:23.194Z,18.40
2023-03-13T23:00:49.884Z,18.40
2023-03-13T23:03:17.713Z,18.40
2023-03-13T23:05:44.720Z,18.40
2023-03-13T23:08:11.582Z,18.40
2023-03-13T23:10:38.245Z,18.40
2023-03-13T23:13:04.880Z,18.40
2023-03-13T23:15:43.054Z,18.40
2023-03-13T23:18:14.327Z,18.40
2023-03-13T23:20:40.956Z,18.30
2023-03-13T23:23:07.653Z,18.40
2023-03-13T23:25:34.339Z,18.30
2023-03-13T23:28:00.913Z,18.40
2023-03-13T23:30:27.563Z,18.30
2023-03-13T23:32:54.270Z,18.40
2023-03-13T23:35:20.946Z,18.40
2023-03-13T23:37:48.370Z,18.40
2023-03-13T23:40:15.081Z,18.40
2023-03-13T23:42:44.038Z,18.40
2023-03-13T23:45:10.763Z,18.40
2023-03-13T23:47:37.356Z,18.40
2023-03-13T23:50:05.387Z,18.40
2023-03-13T23:52:35.469Z,18.40
2023-03-13T23:55:04.229Z,18.40
2023-03-13T23:57:30.843Z,18.40
2023-03-13T23:59:57.823Z,18.40
